Terminal Aerodrome Forecast
Issued by NWS Twin Cities, MN

Home | Current Version | Previous Version | Text Only | Print | Product List | Glossary Off
Versions: 1 2 3 4 5 6 7 8 9 10 11 12 13 14 15 16

032
FTUS43 KMPX 220414 AAA
TAFEAU
TAF AMD
KEAU 220414Z 2204/2224 VRB02KT 6SM BR SKC
     FM221400 14006KT P6SM SKC=

USA.gov is the U.S. government's official web portal to all federal, state and local government web resources and services.